Time;durP1;ratioP1;P1;durP2;ratioP2;P2;SDS_P1;SDS_P2;PMS_P1;PMS_P2;Temp;Humidity;BMP_temperature;BMP_pressure;BME280_temperature;BME280_humidity;BME280_pressure;Samples;Min_cycle;Max_cycle;Signal;HPM_P1;HPM_P2
2023/02/26 00:00:41;;;;;;;8.15;3.22;;;;;;;;;;4887650;29;20037;-75
2023/02/26 00:03:07;;;;;;;6.72;2.90;;;;;;;;;;4891491;29;20100;-76
2023/02/26 00:05:33;;;;;;;6.82;2.85;;;;;;;;;;4878913;29;20022;-75
2023/02/26 00:07:59;;;;;;;4.78;2.53;;;;;;;;;;4882594;29;20025;-77
2023/02/26 00:10:25;;;;;;;7.13;2.65;;;;;;;;;;4879768;29;20059;-77
2023/02/26 00:12:51;;;;;;;3.97;2.83;;;;;;;;;;4891445;29;20029;-77
2023/02/26 00:15:18;;;;;;;2.78;2.03;;;;;;;;;;4890963;29;20526;-76
2023/02/26 00:17:47;;;;;;;4.30;3.65;;;;;;;;;;4889292;29;20029;-75
2023/02/26 00:20:15;;;;;;;7.60;3.67;;;;;;;;;;4880022;29;20061;-76
2023/02/26 00:22:42;;;;;;;9.63;5.00;;;;;;;;;;4875119;29;20029;-76
2023/02/26 00:25:09;;;;;;;10.20;6.32;;;;;;;;;;4880655;29;20500;-78
2023/02/26 00:27:35;;;;;;;8.63;5.75;;;;;;;;;;4877785;29;20032;-75
2023/02/26 00:30:02;;;;;;;7.90;4.20;;;;;;;;;;4874942;29;20104;-77
2023/02/26 00:32:28;;;;;;;10.38;6.18;;;;;;;;;;4868740;29;20033;-76
2023/02/26 00:34:54;;;;;;;5.38;3.58;;;;;;;;;;4872783;29;20132;-76
2023/02/26 00:37:20;;;;;;;8.60;3.20;;;;;;;;;;4875242;29;20103;-78
2023/02/26 00:39:46;;;;;;;6.60;3.28;;;;;;;;;;4871007;29;20029;-76
2023/02/26 00:42:13;;;;;;;15.73;7.35;;;;;;;;;;4869954;29;20061;-77
2023/02/26 00:44:40;;;;;;;10.63;6.05;;;;;;;;;;4866986;29;20029;-77
2023/02/26 00:47:18;;;;;;;7.38;6.55;;;;;;;;;;4870941;29;20064;-77
2023/02/26 00:49:52;;;;;;;4.80;4.40;;;;;;;;;;4873258;29;20040;-77
2023/02/26 00:52:24;;;;;;;12.70;10.80;;;;;;;;;;4864731;29;20088;-76
2023/02/26 00:54:51;;;;;;;6.40;5.80;;;;;;;;;;4843014;29;20038;-76
2023/02/26 00:57:17;;;;;;;6.30;3.70;;;;;;;;;;4862498;29;20066;-76
2023/02/26 00:59:43;;;;;;;2.55;2.35;;;;;;;;;;4868253;29;20120;-77
2023/02/26 01:02:09;;;;;;;5.10;2.83;;;;;;;;;;4864007;29;20445;-77
2023/02/26 01:04:35;;;;;;;6.63;2.75;;;;;;;;;;4872167;29;20155;-77
2023/02/26 01:07:01;;;;;;;4.53;2.35;;;;;;;;;;4871763;29;20037;-76
2023/02/26 01:09:29;;;;;;;4.70;2.55;;;;;;;;;;4867938;29;20045;-76
2023/02/26 01:11:56;;;;;;;4.25;1.90;;;;;;;;;;4870853;29;20060;-78
2023/02/26 01:14:23;;;;;;;4.10;2.15;;;;;;;;;;4860087;29;20033;-77
2023/02/26 01:17:07;;;;;;;2.97;2.28;;;;;;;;;;4855499;29;20065;-77
2023/02/26 01:19:54;;;;;;;1.77;1.60;;;;;;;;;;4854989;29;20556;-77
2023/02/26 01:22:49;;;;;;;4.32;1.85;;;;;;;;;;4874868;29;20194;-77
2023/02/26 01:25:24;;;;;;;5.75;1.80;;;;;;;;;;4861541;29;20045;-77
2023/02/26 01:27:50;;;;;;;4.93;3.22;;;;;;;;;;4874753;29;20539;-77
2023/02/26 01:30:16;;;;;;;4.15;1.90;;;;;;;;;;4875001;29;20074;-76
2023/02/26 01:32:49;;;;;;;3.40;2.08;;;;;;;;;;4869012;29;20018;-76
2023/02/26 01:35:15;;;;;;;9.95;2.72;;;;;;;;;;4873774;29;20116;-77
2023/02/26 01:37:44;;;;;;;7.15;3.88;;;;;;;;;;4876385;29;20033;-77
2023/02/26 01:40:22;;;;;;;7.28;2.65;;;;;;;;;;4869859;29;20039;-76
2023/02/26 01:42:51;;;;;;;5.85;2.40;;;;;;;;;;4869153;29;20033;-78
2023/02/26 01:45:19;;;;;;;4.78;2.05;;;;;;;;;;4857551;29;20460;-77
2023/02/26 01:47:52;;;;;;;3.30;1.45;;;;;;;;;;4868098;29;20061;-78
2023/02/26 01:50:20;;;;;;;4.78;2.28;;;;;;;;;;4871179;29;20109;-76
2023/02/26 01:52:46;;;;;;;7.50;2.67;;;;;;;;;;4870913;29;20493;-77
2023/02/26 01:55:21;;;;;;;5.03;2.15;;;;;;;;;;4867990;29;20029;-76
2023/02/26 01:57:48;;;;;;;3.80;1.83;;;;;;;;;;4867625;29;20025;-77
2023/02/26 02:00:15;;;;;;;4.45;2.53;;;;;;;;;;4861443;29;20675;-77
2023/02/26 02:02:41;;;;;;;4.45;2.20;;;;;;;;;;4868240;29;20033;-76
2023/02/26 02:05:12;;;;;;;7.72;3.63;;;;;;;;;;4868179;29;20039;-78
2023/02/26 02:07:39;;;;;;;2.53;1.80;;;;;;;;;;4862356;29;20393;-76
2023/02/26 02:10:05;;;;;;;3.58;2.08;;;;;;;;;;4866806;29;20092;-77
2023/02/26 02:12:43;;;;;;;2.13;1.70;;;;;;;;;;4872131;29;20194;-76
2023/02/26 02:15:09;;;;;;;3.33;1.95;;;;;;;;;;4870183;29;20630;-77
2023/02/26 02:17:56;;;;;;;5.82;2.20;;;;;;;;;;4874270;29;20336;-77
2023/02/26 02:20:34;;;;;;;5.50;2.10;;;;;;;;;;4862269;29;20156;-76
2023/02/26 02:23:12;;;;;;;5.43;3.42;;;;;;;;;;4872868;29;20033;-77
2023/02/26 02:25:45;;;;;;;5.95;1.90;;;;;;;;;;4865495;29;20088;-76
2023/02/26 02:28:30;;;;;;;4.50;2.22;;;;;;;;;;4866393;29;20045;-77
2023/02/26 02:31:01;;;;;;;3.90;2.00;;;;;;;;;;4872133;29;20447;-77
2023/02/26 02:33:34;;;;;;;6.75;2.10;;;;;;;;;;4877448;29;20436;-77
2023/02/26 02:36:12;;;;;;;7.45;1.90;;;;;;;;;;4868285;29;20068;-76
2023/02/26 02:38:42;;;;;;;6.15;2.35;;;;;;;;;;4864286;29;20648;-77
2023/02/26 02:41:17;;;;;;;7.45;2.13;;;;;;;;;;4871977;29;20040;-77
2023/02/26 02:43:44;;;;;;;5.47;2.03;;;;;;;;;;4867864;29;20108;-76
2023/02/26 02:46:23;;;;;;;3.20;1.60;;;;;;;;;;4863962;29;20060;-76
2023/02/26 02:48:53;;;;;;;3.15;1.67;;;;;;;;;;4865935;29;20037;-75
2023/02/26 02:51:23;;;;;;;4.68;3.38;;;;;;;;;;4875637;29;20028;-77
2023/02/26 02:53:49;;;;;;;2.50;1.95;;;;;;;;;;4868245;29;20029;-76
2023/02/26 02:56:28;;;;;;;6.68;2.05;;;;;;;;;;4869068;29;20048;-77
2023/02/26 02:59:11;;;;;;;4.00;1.90;;;;;;;;;;4873203;29;20065;-76
2023/02/26 03:01:38;;;;;;;2.80;1.90;;;;;;;;;;4870191;29;20033;-77
2023/02/26 03:04:09;;;;;;;2.83;1.80;;;;;;;;;;4868240;29;20044;-76
2023/02/26 03:06:35;;;;;;;8.38;2.17;;;;;;;;;;4865638;29;20029;-77
2023/02/26 03:09:03;;;;;;;3.95;1.92;;;;;;;;;;4865660;29;20158;-77
2023/02/26 03:11:29;;;;;;;3.50;1.67;;;;;;;;;;4866475;29;20033;-75
2023/02/26 03:13:56;;;;;;;3.17;2.22;;;;;;;;;;4867303;29;20025;-78
2023/02/26 03:16:25;;;;;;;2.60;1.73;;;;;;;;;;4866405;29;20126;-76
2023/02/26 03:18:51;;;;;;;4.70;1.88;;;;;;;;;;4872076;29;20176;-76
2023/02/26 03:21:26;;;;;;;2.05;1.95;;;;;;;;;;4865751;29;20546;-78
2023/02/26 03:23:57;;;;;;;5.55;1.65;;;;;;;;;;4867475;29;20037;-77
2023/02/26 03:26:23;;;;;;;4.00;1.95;;;;;;;;;;4855434;29;20051;-79
2023/02/26 03:28:57;;;;;;;4.70;2.00;;;;;;;;;;4871129;29;20519;-76
2023/02/26 03:31:35;;;;;;;2.58;1.60;;;;;;;;;;4864995;29;20033;-76
2023/02/26 03:34:06;;;;;;;2.88;1.63;;;;;;;;;;4868074;29;20077;-76
2023/02/26 03:36:35;;;;;;;4.13;2.13;;;;;;;;;;4861068;29;20025;-76
2023/02/26 03:39:11;;;;;;;5.43;1.85;;;;;;;;;;4871506;29;20083;-75
2023/02/26 03:41:43;;;;;;;4.90;1.75;;;;;;;;;;4868393;29;20057;-77
2023/02/26 03:44:15;;;;;;;3.33;1.67;;;;;;;;;;4870098;29;20286;-77
2023/02/26 03:46:50;;;;;;;4.55;2.70;;;;;;;;;;4870038;29;20049;-77
2023/02/26 03:49:20;;;;;;;1.60;1.50;;;;;;;;;;4857687;29;20029;-78
2023/02/26 03:51:46;;;;;;;2.85;1.45;;;;;;;;;;4862716;29;20033;-77
2023/02/26 03:54:19;;;;;;;6.45;2.30;;;;;;;;;;4869463;29;20076;-76
2023/02/26 03:56:46;;;;;;;1.73;1.52;;;;;;;;;;4852688;29;20040;-76
2023/02/26 03:59:12;;;;;;;5.05;1.70;;;;;;;;;;4867108;29;20460;-75
2023/02/26 04:01:45;;;;;;;6.63;2.08;;;;;;;;;;4866166;29;20036;-76
2023/02/26 04:04:18;;;;;;;1.55;1.45;;;;;;;;;;4869696;29;20556;-76
2023/02/26 04:06:45;;;;;;;2.97;1.40;;;;;;;;;;4863894;29;20350;-77
2023/02/26 04:09:11;;;;;;;1.50;1.40;;;;;;;;;;4868876;29;20381;-77
2023/02/26 04:11:38;;;;;;;2.58;1.50;;;;;;;;;;4866031;29;20029;-78
2023/02/26 04:14:04;;;;;;;3.63;1.70;;;;;;;;;;4866487;29;20026;-79
2023/02/26 04:16:30;;;;;;;2.75;2.28;;;;;;;;;;4870741;29;20506;-79
2023/02/26 04:18:56;;;;;;;4.18;1.70;;;;;;;;;;4870702;29;20039;-78
2023/02/26 04:21:22;;;;;;;3.05;1.60;;;;;;;;;;4869540;29;20043;-76
2023/02/26 04:23:48;;;;;;;5.20;1.67;;;;;;;;;;4855564;29;20038;-76
2023/02/26 04:26:15;;;;;;;1.63;1.52;;;;;;;;;;4870866;29;20081;-77
2023/02/26 04:28:41;;;;;;;4.18;1.77;;;;;;;;;;4868616;29;20029;-76
2023/02/26 04:31:09;;;;;;;1.60;1.40;;;;;;;;;;4869773;29;20033;-77
2023/02/26 04:33:35;;;;;;;3.28;1.90;;;;;;;;;;4853520;29;20278;-76
2023/02/26 04:36:01;;;;;;;2.60;1.63;;;;;;;;;;4852522;29;20030;-75
2023/02/26 04:38:28;;;;;;;2.58;2.15;;;;;;;;;;4862822;29;20041;-76
2023/02/26 04:40:54;;;;;;;1.90;1.70;;;;;;;;;;4859914;29;20429;-76
2023/02/26 04:43:20;;;;;;;2.83;1.75;;;;;;;;;;4880414;29;20028;-76
2023/02/26 04:45:47;;;;;;;6.57;1.77;;;;;;;;;;4873086;29;20048;-77
2023/02/26 04:48:13;;;;;;;3.35;1.73;;;;;;;;;;4871418;29;20035;-77
2023/02/26 04:50:40;;;;;;;3.45;1.75;;;;;;;;;;4863140;29;20037;-77
2023/02/26 04:53:06;;;;;;;1.63;1.52;;;;;;;;;;4872603;29;20025;-77
2023/02/26 04:55:33;;;;;;;7.50;1.77;;;;;;;;;;4873561;29;20028;-76
2023/02/26 04:57:59;;;;;;;3.75;1.77;;;;;;;;;;4857360;29;20037;-76
2023/02/26 05:00:25;;;;;;;3.03;1.85;;;;;;;;;;4862637;29;20107;-76
2023/02/26 05:02:51;;;;;;;3.40;1.70;;;;;;;;;;4867206;29;20037;-77
2023/02/26 05:05:17;;;;;;;2.13;1.60;;;;;;;;;;4874283;29;20492;-77
2023/02/26 05:07:44;;;;;;;5.07;1.80;;;;;;;;;;4876378;29;20048;-77
2023/02/26 05:10:10;;;;;;;2.03;1.63;;;;;;;;;;4872853;29;20100;-79
2023/02/26 05:12:36;;;;;;;4.63;1.85;;;;;;;;;;4882724;29;20430;-76
2023/02/26 05:15:03;;;;;;;2.22;1.52;;;;;;;;;;4874719;29;20112;-79
2023/02/26 05:17:29;;;;;;;3.25;1.52;;;;;;;;;;4868971;29;20072;-75
2023/02/26 05:19:55;;;;;;;5.15;1.88;;;;;;;;;;4868582;29;20988;-77
2023/02/26 05:22:21;;;;;;;2.42;2.15;;;;;;;;;;4879864;29;20032;-76
2023/02/26 05:24:47;;;;;;;2.45;1.50;;;;;;;;;;4874689;29;20488;-76
2023/02/26 05:27:13;;;;;;;5.05;2.45;;;;;;;;;;4870384;29;20112;-78
2023/02/26 05:29:41;;;;;;;3.20;1.77;;;;;;;;;;4862307;29;20033;-78
2023/02/26 05:32:07;;;;;;;4.47;2.53;;;;;;;;;;4871279;29;20029;-77
2023/02/26 05:34:33;;;;;;;11.00;6.00;;;;;;;;;;4862306;29;20037;-76
2023/02/26 05:36:59;;;;;;;12.30;5.28;;;;;;;;;;4872699;29;20021;-76
2023/02/26 05:39:25;;;;;;;35.47;15.80;;;;;;;;;;4869818;29;20052;-77
2023/02/26 05:41:54;;;;;;;31.73;12.52;;;;;;;;;;4854490;29;20382;-77
2023/02/26 05:44:20;;;;;;;21.05;10.32;;;;;;;;;;4864320;29;20479;-76
2023/02/26 05:46:46;;;;;;;27.75;12.88;;;;;;;;;;4863327;29;20128;-79
2023/02/26 05:49:12;;;;;;;38.50;17.65;;;;;;;;;;4881570;29;20039;-76
2023/02/26 05:51:38;;;;;;;18.92;7.53;;;;;;;;;;4889154;29;20520;-76
2023/02/26 05:54:05;;;;;;;16.67;6.82;;;;;;;;;;4893289;29;20084;-77
2023/02/26 05:56:31;;;;;;;38.17;16.17;;;;;;;;;;4884930;29;21072;-77
2023/02/26 05:58:57;;;;;;;8.20;4.40;;;;;;;;;;4889587;29;20044;-76
2023/02/26 06:01:23;;;;;;;7.10;3.60;;;;;;;;;;4893658;29;20037;-78
2023/02/26 06:03:49;;;;;;;6.93;4.00;;;;;;;;;;4888288;29;20029;-76
2023/02/26 06:06:17;;;;;;;3.55;3.17;;;;;;;;;;4884789;29;20101;-76
2023/02/26 06:08:44;;;;;;;7.10;4.78;;;;;;;;;;4890788;29;20052;-76
2023/02/26 06:11:11;;;;;;;5.20;2.38;;;;;;;;;;4892458;29;20188;-76
2023/02/26 06:13:37;;;;;;;3.72;2.20;;;;;;;;;;4886220;29;20135;-78
2023/02/26 06:16:03;;;;;;;2.72;2.38;;;;;;;;;;4875237;29;20037;-77
2023/02/26 06:18:31;;;;;;;4.53;2.55;;;;;;;;;;4866886;29;20041;-77
2023/02/26 06:20:57;;;;;;;2.60;1.67;;;;;;;;;;4886209;29;20527;-76
2023/02/26 06:23:23;;;;;;;4.18;2.00;;;;;;;;;;4886223;29;20048;-76
2023/02/26 06:25:53;;;;;;;7.65;3.50;;;;;;;;;;4872712;29;20037;-77
2023/02/26 06:28:19;;;;;;;3.13;2.00;;;;;;;;;;4889565;29;20032;-77
2023/02/26 06:30:45;;;;;;;3.15;1.83;;;;;;;;;;4892815;29;20713;-76
2023/02/26 06:33:12;;;;;;;3.97;1.85;;;;;;;;;;4888299;29;20380;-77
2023/02/26 06:35:38;;;;;;;4.00;2.90;;;;;;;;;;4886975;29;20060;-76
2023/02/26 06:38:04;;;;;;;4.45;2.20;;;;;;;;;;4884431;29;20041;-76
2023/02/26 06:40:30;;;;;;;7.45;3.10;;;;;;;;;;4888329;29;20033;-77
2023/02/26 06:42:56;;;;;;;6.07;2.50;;;;;;;;;;4887019;29;20103;-76
2023/02/26 06:45:24;;;;;;;5.13;2.40;;;;;;;;;;4884658;29;20530;-76
2023/02/26 06:47:50;;;;;;;5.07;3.65;;;;;;;;;;4886059;29;20056;-76
2023/02/26 06:50:17;;;;;;;3.65;1.90;;;;;;;;;;4886075;29;20032;-77
2023/02/26 06:52:43;;;;;;;2.95;1.80;;;;;;;;;;4891482;29;20059;-77
2023/02/26 06:55:09;;;;;;;2.90;1.92;;;;;;;;;;4885192;29;20032;-77
2023/02/26 06:57:35;;;;;;;3.72;1.88;;;;;;;;;;4892360;29;20024;-77
2023/02/26 07:00:01;;;;;;;4.25;2.13;;;;;;;;;;4886110;29;20464;-77
2023/02/26 07:02:28;;;;;;;3.78;1.98;;;;;;;;;;4883866;29;20483;-76
2023/02/26 07:04:54;;;;;;;5.13;2.65;;;;;;;;;;4892276;29;20036;-77
2023/02/26 07:07:20;;;;;;;4.22;2.05;;;;;;;;;;4895733;29;20028;-77
2023/02/26 07:09:46;;;;;;;3.15;1.80;;;;;;;;;;4886419;29;20480;-76
2023/02/26 07:12:12;;;;;;;5.93;1.88;;;;;;;;;;4896500;29;20032;-76
2023/02/26 07:14:39;;;;;;;1.98;1.67;;;;;;;;;;4890335;29;20037;-77
2023/02/26 07:17:05;;;;;;;2.22;2.03;;;;;;;;;;4891698;29;20491;-78
2023/02/26 07:19:31;;;;;;;4.22;1.55;;;;;;;;;;4892272;29;20961;-77
2023/02/26 07:21:57;;;;;;;2.50;1.77;;;;;;;;;;4896188;29;20032;-78
2023/02/26 07:24:24;;;;;;;1.73;1.50;;;;;;;;;;4885198;29;20036;-78
2023/02/26 07:26:50;;;;;;;2.95;1.83;;;;;;;;;;4889159;29;20120;-77
2023/02/26 07:29:16;;;;;;;5.13;1.60;;;;;;;;;;4890715;29;20623;-77
2023/02/26 07:31:42;;;;;;;3.83;1.75;;;;;;;;;;4883557;29;20039;-77
2023/02/26 07:34:08;;;;;;;4.43;2.13;;;;;;;;;;4885865;29;20039;-77
2023/02/26 07:36:34;;;;;;;1.85;1.52;;;;;;;;;;4885950;29;20030;-77
2023/02/26 07:39:00;;;;;;;5.38;1.80;;;;;;;;;;4883494;29;20101;-77
2023/02/26 07:41:27;;;;;;;3.55;1.40;;;;;;;;;;4885938;29;20029;-77
2023/02/26 07:43:53;;;;;;;6.70;1.90;;;;;;;;;;4893936;29;20035;-78
2023/02/26 07:46:19;;;;;;;3.33;1.60;;;;;;;;;;4877664;29;20085;-78
2023/02/26 07:48:45;;;;;;;6.40;2.17;;;;;;;;;;4868398;29;20556;-77
2023/02/26 07:51:11;;;;;;;4.38;1.90;;;;;;;;;;4868220;29;20033;-77
2023/02/26 07:53:37;;;;;;;2.45;1.60;;;;;;;;;;4873985;29;20040;-77
2023/02/26 07:56:04;;;;;;;2.83;1.70;;;;;;;;;;4869759;29;20112;-78
2023/02/26 07:58:30;;;;;;;5.32;2.00;;;;;;;;;;4874065;29;20388;-78
2023/02/26 08:00:57;;;;;;;3.65;1.98;;;;;;;;;;4876117;29;20092;-76
2023/02/26 08:03:23;;;;;;;5.38;1.90;;;;;;;;;;4879909;29;20021;-79
2023/02/26 08:05:49;;;;;;;3.47;2.03;;;;;;;;;;4862727;29;20041;-78
2023/02/26 08:08:16;;;;;;;4.75;2.22;;;;;;;;;;4869133;29;20033;-76
2023/02/26 08:10:42;;;;;;;5.50;1.63;;;;;;;;;;4869703;29;20145;-78
2023/02/26 08:13:08;;;;;;;5.68;1.60;;;;;;;;;;4870162;29;20195;-78
2023/02/26 08:15:34;;;;;;;4.45;1.85;;;;;;;;;;4863773;29;21407;-80
2023/02/26 08:18:00;;;;;;;3.78;1.63;;;;;;;;;;4870838;29;20089;-78
2023/02/26 08:20:26;;;;;;;4.40;1.58;;;;;;;;;;4869838;29;20136;-77
2023/02/26 08:22:52;;;;;;;4.28;1.60;;;;;;;;;;4872741;29;20460;-77
2023/02/26 08:25:19;;;;;;;3.22;1.67;;;;;;;;;;4870311;29;20151;-76
2023/02/26 08:27:45;;;;;;;4.07;1.83;;;;;;;;;;4876180;29;20033;-76
2023/02/26 08:30:11;;;;;;;6.00;1.60;;;;;;;;;;4874495;29;20056;-77
2023/02/26 08:32:38;;;;;;;2.33;1.65;;;;;;;;;;4871984;29;20032;-77
2023/02/26 08:35:05;;;;;;;3.78;1.95;;;;;;;;;;4868325;29;20433;-77
2023/02/26 08:37:31;;;;;;;3.67;2.03;;;;;;;;;;4877702;29;20024;-78
2023/02/26 08:39:57;;;;;;;3.67;1.88;;;;;;;;;;4873222;29;20026;-76
2023/02/26 08:42:23;;;;;;;4.28;2.63;;;;;;;;;;4874239;29;20033;-77
2023/02/26 08:44:49;;;;;;;2.45;1.58;;;;;;;;;;4878284;29;20060;-77
2023/02/26 08:47:15;;;;;;;6.97;1.77;;;;;;;;;;4890605;29;20043;-78
2023/02/26 08:49:41;;;;;;;6.30;2.40;;;;;;;;;;4877782;29;20038;-77
2023/02/26 08:52:08;;;;;;;2.97;1.58;;;;;;;;;;4889696;29;20092;-77
2023/02/26 08:54:34;;;;;;;3.97;1.85;;;;;;;;;;4884502;29;20028;-77
2023/02/26 08:57:00;;;;;;;5.22;1.58;;;;;;;;;;4889433;29;20060;-77
2023/02/26 08:59:26;;;;;;;6.18;1.80;;;;;;;;;;4882841;29;20040;-77
2023/02/26 09:01:52;;;;;;;3.40;1.95;;;;;;;;;;4889862;29;20141;-77
2023/02/26 09:04:19;;;;;;;4.65;2.03;;;;;;;;;;4892896;29;20245;-78
2023/02/26 09:06:45;;;;;;;3.83;2.05;;;;;;;;;;4902323;29;20031;-77
2023/02/26 09:09:12;;;;;;;7.80;2.28;;;;;;;;;;4892876;29;20228;-77
2023/02/26 09:11:38;;;;;;;4.47;1.75;;;;;;;;;;4899323;29;20043;-77
2023/02/26 09:14:04;;;;;;;2.97;1.90;;;;;;;;;;4896573;29;20043;-77
2023/02/26 09:16:30;;;;;;;3.55;2.10;;;;;;;;;;4893441;29;20025;-77
2023/02/26 09:18:57;;;;;;;5.70;1.85;;;;;;;;;;4885718;29;20369;-78
2023/02/26 09:21:23;;;;;;;5.55;2.10;;;;;;;;;;4879518;29;20044;-79
2023/02/26 09:23:49;;;;;;;4.47;2.00;;;;;;;;;;4903723;29;20021;-78
2023/02/26 09:26:15;;;;;;;3.35;1.80;;;;;;;;;;4903783;29;20394;-78
2023/02/26 09:28:42;;;;;;;4.95;2.30;;;;;;;;;;4906633;29;20028;-78
2023/02/26 09:31:08;;;;;;;4.75;2.17;;;;;;;;;;4909120;29;20068;-78
2023/02/26 09:33:34;;;;;;;5.72;2.33;;;;;;;;;;4904719;29;20040;-78
2023/02/26 09:36:01;;;;;;;4.07;1.63;;;;;;;;;;4901776;29;20064;-80
2023/02/26 09:38:27;;;;;;;5.25;1.75;;;;;;;;;;4896941;29;20032;-77
2023/02/26 09:40:53;;;;;;;2.10;1.88;;;;;;;;;;4899080;29;20068;-78
2023/02/26 09:43:22;;;;;;;6.00;1.98;;;;;;;;;;4897288;29;20510;-76
2023/02/26 09:45:50;;;;;;;10.65;3.42;;;;;;;;;;4894190;29;20056;-78
2023/02/26 09:48:18;;;;;;;4.82;2.08;;;;;;;;;;4892222;29;20064;-77
2023/02/26 09:50:52;;;;;;;4.25;2.17;;;;;;;;;;4895376;29;20033;-78
2023/02/26 09:53:21;;;;;;;7.93;2.92;;;;;;;;;;4879209;29;20535;-78
2023/02/26 09:55:49;;;;;;;3.47;2.30;;;;;;;;;;4882733;29;20036;-78
2023/02/26 09:58:18;;;;;;;4.60;2.13;;;;;;;;;;4892293;29;20076;-78
2023/02/26 10:00:53;;;;;;;8.02;2.40;;;;;;;;;;4878272;29;20392;-78
2023/02/26 10:03:34;;;;;;;5.03;2.75;;;;;;;;;;4890598;29;20150;-77
2023/02/26 10:06:18;;;;;;;7.30;3.47;;;;;;;;;;4891932;29;20043;-77
2023/02/26 10:08:53;;;;;;;8.55;5.15;;;;;;;;;;4892898;29;20036;-76
2023/02/26 10:11:29;;;;;;;4.53;2.95;;;;;;;;;;4872269;29;20056;-77
2023/02/26 10:14:04;;;;;;;4.18;2.95;;;;;;;;;;4887153;29;20464;-78
2023/02/26 10:16:33;;;;;;;5.50;2.00;;;;;;;;;;4879502;29;20036;-77
2023/02/26 10:19:19;;;;;;;3.38;2.20;;;;;;;;;;4875833;29;20055;-77
2023/02/26 10:21:54;;;;;;;4.05;1.90;;;;;;;;;;4899162;29;20036;-76
2023/02/26 10:24:30;;;;;;;7.57;2.37;;;;;;;;;;4880712;29;20040;-76
2023/02/26 10:27:00;;;;;;;4.43;2.40;;;;;;;;;;4884205;29;20028;-77
2023/02/26 10:29:36;;;;;;;7.95;1.95;;;;;;;;;;4902670;29;20488;-77
2023/02/26 10:32:14;;;;;;;6.30;2.03;;;;;;;;;;4905974;29;20048;-77
2023/02/26 10:34:47;;;;;;;4.65;2.38;;;;;;;;;;4899575;29;20037;-76
2023/02/26 10:37:16;;;;;;;7.90;2.00;;;;;;;;;;4885215;29;20225;-78
2023/02/26 10:39:55;;;;;;;4.10;2.50;;;;;;;;;;4894575;29;20032;-78
2023/02/26 10:42:24;;;;;;;3.50;1.80;;;;;;;;;;4897799;29;20037;-76
2023/02/26 10:44:56;;;;;;;5.93;2.35;;;;;;;;;;4894654;29;20040;-78
2023/02/26 10:47:24;;;;;;;5.30;1.67;;;;;;;;;;4882450;29;20058;-78
2023/02/26 10:49:54;;;;;;;7.70;2.63;;;;;;;;;;4880223;29;20040;-77
2023/02/26 10:52:23;;;;;;;4.35;2.05;;;;;;;;;;4878395;29;20049;-78
2023/02/26 10:54:52;;;;;;;8.25;3.33;;;;;;;;;;4874463;29;20131;-78
2023/02/26 10:57:27;;;;;;;6.45;2.45;;;;;;;;;;4876105;29;20493;-77
2023/02/26 10:59:53;;;;;;;5.45;2.00;;;;;;;;;;4880645;29;20092;-76
2023/02/26 11:02:42;;;;;;;7.82;2.13;;;;;;;;;;4877578;29;20650;-76
2023/02/26 11:05:24;;;;;;;5.13;2.38;;;;;;;;;;4874044;29;20370;-77
2023/02/26 11:07:54;;;;;;;6.55;2.63;;;;;;;;;;4869903;29;20037;-76
2023/02/26 11:10:23;;;;;;;7.32;2.13;;;;;;;;;;4871804;29;20507;-78
2023/02/26 11:12:49;;;;;;;3.10;1.85;;;;;;;;;;4871468;29;20559;-76
2023/02/26 11:15:20;;;;;;;3.35;2.05;;;;;;;;;;4869589;29;20040;-78
2023/02/26 11:17:53;;;;;;;2.40;1.73;;;;;;;;;;4873524;29;20033;-78
2023/02/26 11:20:26;;;;;;;3.47;1.92;;;;;;;;;;4872285;29;20330;-77
2023/02/26 11:22:55;;;;;;;6.50;2.00;;;;;;;;;;4876913;29;20033;-76
2023/02/26 11:25:23;;;;;;;5.18;2.10;;;;;;;;;;4874099;29;20178;-76
2023/02/26 11:27:53;;;;;;;5.15;2.58;;;;;;;;;;4872911;29;20111;-77
2023/02/26 11:30:20;;;;;;;4.20;2.33;;;;;;;;;;4875179;29;20033;-78
2023/02/26 11:32:50;;;;;;;3.83;2.50;;;;;;;;;;4874878;29;20697;-75
2023/02/26 11:35:17;;;;;;;5.53;2.22;;;;;;;;;;4858722;29;20025;-77
2023/02/26 11:37:48;;;;;;;4.55;2.10;;;;;;;;;;4875594;29;20048;-79
2023/02/26 11:40:16;;;;;;;5.38;2.10;;;;;;;;;;4872852;29;20089;-78
2023/02/26 11:42:52;;;;;;;8.07;3.33;;;;;;;;;;4870893;29;20428;-77
2023/02/26 11:45:20;;;;;;;5.47;2.13;;;;;;;;;;4883103;29;20044;-78
2023/02/26 11:47:46;;;;;;;7.80;2.28;;;;;;;;;;4890408;29;20028;-77
2023/02/26 11:50:21;;;;;;;5.50;1.90;;;;;;;;;;4893156;29;20479;-77
2023/02/26 11:52:53;;;;;;;5.97;2.20;;;;;;;;;;4894649;29;20032;-79
2023/02/26 11:55:21;;;;;;;3.63;2.35;;;;;;;;;;4890735;29;20031;-76
2023/02/26 11:57:52;;;;;;;4.80;2.20;;;;;;;;;;4891138;29;20512;-77
2023/02/26 12:00:20;;;;;;;3.70;2.03;;;;;;;;;;4889654;29;20476;-77
2023/02/26 12:02:47;;;;;;;5.57;3.08;;;;;;;;;;4893991;29;20043;-77
2023/02/26 12:05:15;;;;;;;4.05;2.35;;;;;;;;;;4894263;29;20486;-77
2023/02/26 12:07:42;;;;;;;3.97;2.40;;;;;;;;;;4893021;29;20060;-77
2023/02/26 12:10:19;;;;;;;9.02;4.88;;;;;;;;;;4883810;29;20020;-76
2023/02/26 12:12:45;;;;;;;6.65;2.67;;;;;;;;;;4891924;29;20510;-78
2023/02/26 12:15:21;;;;;;;6.80;3.72;;;;;;;;;;4896331;29;20110;-77
2023/02/26 12:17:53;;;;;;;9.20;4.43;;;;;;;;;;4896570;29;20100;-76
2023/02/26 12:20:42;;;;;;;8.05;4.63;;;;;;;;;;4884738;29;20067;-76
2023/02/26 12:23:20;;;;;;;6.60;3.90;;;;;;;;;;4858996;29;20052;-76
2023/02/26 12:26:02;;;;;;;6.00;2.70;;;;;;;;;;4888116;29;20029;-76
2023/02/26 12:28:46;;;;;;;6.07;2.33;;;;;;;;;;4894749;29;20033;-76
2023/02/26 12:31:31;;;;;;;6.32;2.38;;;;;;;;;;4891576;29;20092;-77
2023/02/26 12:34:10;;;;;;;3.22;2.67;;;;;;;;;;4895445;29;20161;-76
2023/02/26 12:36:56;;;;;;;5.50;2.60;;;;;;;;;;4892833;29;20040;-77
2023/02/26 12:39:40;;;;;;;5.75;2.92;;;;;;;;;;4846640;29;20143;-77
2023/02/26 12:42:16;;;;;;;8.15;2.72;;;;;;;;;;4899700;29;20032;-78
2023/02/26 12:44:42;;;;;;;;;;;;;;;;;;4897413;29;20419;-77
2023/02/26 12:47:26;;;;;;;5.28;2.35;;;;;;;;;;4890742;29;19927;-78
2023/02/26 12:50:16;;;;;;;4.70;2.17;;;;;;;;;;4894130;29;20040;-77
2023/02/26 12:52:49;;;;;;;4.13;2.65;;;;;;;;;;4886907;29;20029;-77
2023/02/26 12:55:30;;;;;;;4.85;1.92;;;;;;;;;;4896534;29;20540;-78
2023/02/26 12:58:12;;;;;;;4.05;1.90;;;;;;;;;;4894144;29;20033;-77
2023/02/26 13:00:38;;;;;;;5.72;2.35;;;;;;;;;;4890250;29;20037;-77
2023/02/26 13:03:08;;;;;;;6.65;2.40;;;;;;;;;;4893469;29;20036;-77
2023/02/26 13:05:35;;;;;;;3.65;2.08;;;;;;;;;;4877858;29;20035;-79
2023/02/26 13:08:04;;;;;;;4.20;2.65;;;;;;;;;;4876867;29;20392;-77
2023/02/26 13:10:49;;;;;;;5.40;2.63;;;;;;;;;;4896412;29;20075;-76
2023/02/26 13:13:28;;;;;;;4.37;2.53;;;;;;;;;;4897601;29;20036;-78
2023/02/26 13:16:12;;;;;;;8.13;2.40;;;;;;;;;;4897135;29;20060;-76
2023/02/26 13:18:41;;;;;;;6.35;2.35;;;;;;;;;;4896559;29;20038;-77
2023/02/26 13:21:10;;;;;;;6.75;2.53;;;;;;;;;;4897582;29;20039;-76
2023/02/26 13:23:45;;;;;;;3.83;2.47;;;;;;;;;;4899650;29;20109;-78
2023/02/26 13:26:12;;;;;;;3.63;2.93;;;;;;;;;;4897269;29;20032;-76
2023/02/26 13:28:42;;;;;;;5.78;3.17;;;;;;;;;;4903493;29;21127;-77
2023/02/26 13:31:11;;;;;;;6.85;2.72;;;;;;;;;;4894732;29;20036;-78
2023/02/26 13:33:38;;;;;;;4.43;2.47;;;;;;;;;;4889171;29;20024;-77
2023/02/26 13:36:07;;;;;;;4.80;2.15;;;;;;;;;;4892969;29;20036;-77
2023/02/26 13:38:33;;;;;;;6.07;2.00;;;;;;;;;;4895415;29;20028;-76
2023/02/26 13:41:08;;;;;;;2.95;2.35;;;;;;;;;;4894050;29;20052;-78
2023/02/26 13:43:52;;;;;;;3.70;2.20;;;;;;;;;;4900137;29;20042;-78
2023/02/26 13:46:26;;;;;;;3.75;2.10;;;;;;;;;;4888851;29;20048;-77
2023/02/26 13:48:55;;;;;;;6.68;2.30;;;;;;;;;;4879530;29;20033;-77
2023/02/26 13:51:30;;;;;;;4.30;2.45;;;;;;;;;;4877667;29;20627;-77
2023/02/26 13:54:03;;;;;;;4.57;2.50;;;;;;;;;;4876654;29;20070;-77
2023/02/26 13:56:32;;;;;;;5.97;3.88;;;;;;;;;;4884082;29;20029;-76
2023/02/26 13:59:23;;;;;;;8.98;4.38;;;;;;;;;;4869686;29;20825;-76
2023/02/26 14:01:53;;;;;;;4.15;2.03;;;;;;;;;;4880172;29;20654;-78
2023/02/26 14:04:22;;;;;;;7.03;4.07;;;;;;;;;;4894786;29;20109;-78
2023/02/26 14:06:48;;;;;;;4.60;3.05;;;;;;;;;;4888809;29;20165;-77
2023/02/26 14:09:26;;;;;;;3.78;2.80;;;;;;;;;;4879022;29;20039;-79
2023/02/26 14:11:55;;;;;;;6.00;2.63;;;;;;;;;;4883257;29;20045;-77
2023/02/26 14:14:21;;;;;;;3.45;2.40;;;;;;;;;;4880589;29;21282;-78
2023/02/26 14:16:55;;;;;;;4.18;2.88;;;;;;;;;;4885151;29;20101;-76
2023/02/26 14:19:41;;;;;;;9.23;2.53;;;;;;;;;;4881312;29;20033;-76
2023/02/26 14:22:22;;;;;;;5.20;2.25;;;;;;;;;;4877716;29;20028;-77
2023/02/26 14:24:53;;;;;;;4.55;2.97;;;;;;;;;;4879692;29;20032;-77
2023/02/26 14:27:19;;;;;;;5.78;2.25;;;;;;;;;;4880576;29;20037;-76
2023/02/26 14:29:59;;;;;;;4.13;2.72;;;;;;;;;;4880335;29;20528;-77
2023/02/26 14:32:44;;;;;;;6.68;2.50;;;;;;;;;;4879509;29;20060;-77
2023/02/26 14:35:12;;;;;;;6.88;2.90;;;;;;;;;;4864121;29;20049;-77
2023/02/26 14:37:39;;;;;;;4.65;3.00;;;;;;;;;;4876650;29;20037;-77
2023/02/26 14:40:10;;;;;;;7.53;3.25;;;;;;;;;;4878881;29;20048;-76
2023/02/26 14:43:05;;;;;;;9.45;3.53;;;;;;;;;;4878091;29;20029;-79
2023/02/26 14:45:36;;;;;;;6.43;2.45;;;;;;;;;;4863717;29;20374;-77
2023/02/26 14:48:07;;;;;;;6.10;2.83;;;;;;;;;;4876571;29;20160;-78
2023/02/26 14:50:59;;;;;;;6.88;3.55;;;;;;;;;;4878239;29;20032;-76
2023/02/26 14:53:44;;;;;;;6.85;3.72;;;;;;;;;;4869412;29;20071;-77
2023/02/26 14:56:16;;;;;;;6.00;3.50;;;;;;;;;;4854655;29;20060;-78
2023/02/26 14:58:45;;;;;;;4.15;2.40;;;;;;;;;;4871942;29;20065;-77